createdAt,value
2022-07-29T00:03:12.324Z,12
2022-07-29T00:08:12.651Z,11
2022-07-29T00:13:12.249Z,9
2022-07-29T00:18:12.247Z,11
2022-07-29T00:23:13.847Z,10
2022-07-29T00:28:12.292Z,10
2022-07-29T00:33:12.316Z,16
2022-07-29T00:38:12.269Z,10
2022-07-29T00:43:12.273Z,9
2022-07-29T00:48:12.287Z,10
2022-07-29T00:53:13.835Z,10
2022-07-29T00:58:12.338Z,10
2022-07-29T01:03:12.319Z,11
2022-07-29T01:08:12.354Z,10
2022-07-29T01:13:12.452Z,11
2022-07-29T01:18:12.334Z,11
2022-07-29T01:23:12.982Z,12
2022-07-29T01:28:12.890Z,10
2022-07-29T01:33:12.403Z,9
2022-07-29T01:38:12.386Z,11
2022-07-29T01:43:12.431Z,9
2022-07-29T01:48:12.412Z,10
2022-07-29T01:53:12.421Z,10
2022-07-29T01:58:12.452Z,10
2022-07-29T02:03:12.945Z,10
2022-07-29T02:08:12.570Z,10
2022-07-29T02:13:12.571Z,9
2022-07-29T02:18:12.460Z,10
2022-07-29T02:23:12.479Z,8
2022-07-29T02:28:12.485Z,9
2022-07-29T02:33:12.488Z,10
2022-07-29T02:38:12.511Z,8
2022-07-29T02:43:12.515Z,9
2022-07-29T02:48:12.510Z,9
2022-07-29T02:53:12.655Z,9
2022-07-29T02:58:12.676Z,9
2022-07-29T03:03:12.592Z,10
2022-07-29T03:08:12.586Z,10
2022-07-29T03:13:12.593Z,9
2022-07-29T03:18:12.684Z,9
2022-07-29T03:23:12.579Z,10
2022-07-29T03:28:14.300Z,9
2022-07-29T03:33:13.238Z,9
2022-07-29T03:38:12.633Z,9
2022-07-29T03:43:12.739Z,9
2022-07-29T03:48:12.663Z,9
2022-07-29T03:53:12.641Z,9
2022-07-29T03:58:12.696Z,11
2022-07-29T04:03:12.707Z,10
2022-07-29T04:08:12.668Z,9
2022-07-29T04:13:12.712Z,9
2022-07-29T04:18:12.726Z,9
2022-07-29T04:23:12.693Z,9
2022-07-29T04:28:12.713Z,11
2022-07-29T04:33:12.716Z,10
2022-07-29T04:38:15.651Z,9
2022-07-29T04:43:14.211Z,9
2022-07-29T04:48:12.769Z,9
2022-07-29T04:53:12.761Z,9
2022-07-29T04:58:12.774Z,9
2022-07-29T05:03:12.816Z,6
2022-07-29T05:08:12.827Z,6
2022-07-29T05:13:12.938Z,7
2022-07-29T05:18:12.794Z,7
2022-07-29T05:23:12.813Z,8
2022-07-29T05:28:12.835Z,7
2022-07-29T05:33:34.413Z,7
2022-07-29T05:38:12.831Z,8
2022-07-29T05:43:12.842Z,10
2022-07-29T05:48:12.876Z,9
2022-07-29T05:53:19.268Z,10
2022-07-29T05:58:12.901Z,9
2022-07-29T06:03:13.045Z,10
2022-07-29T06:08:12.914Z,10
2022-07-29T06:13:12.944Z,10
2022-07-29T06:18:12.931Z,9
2022-07-29T06:23:12.944Z,10
2022-07-29T06:28:12.964Z,14
2022-07-29T06:33:13.018Z,10
2022-07-29T06:38:25.117Z,13
2022-07-29T06:43:13.541Z,12
2022-07-29T06:48:12.996Z,16
2022-07-29T06:53:13.064Z,11
2022-07-29T06:58:12.996Z,10
2022-07-29T07:03:13.021Z,10
2022-07-29T07:08:13.035Z,11
2022-07-29T07:13:13.032Z,11
2022-07-29T07:18:13.044Z,10
2022-07-29T07:23:13.043Z,9
2022-07-29T07:28:13.045Z,14
2022-07-29T07:33:13.069Z,9
2022-07-29T07:38:13.111Z,9
2022-07-29T07:43:13.086Z,9
2022-07-29T07:48:13.101Z,11
2022-07-29T07:53:13.118Z,7
2022-07-29T07:58:13.120Z,7
2022-07-29T08:03:16.645Z,7
2022-07-29T08:08:13.143Z,6
2022-07-29T08:13:13.153Z,8
2022-07-29T08:18:13.317Z,8
2022-07-29T08:23:13.230Z,10
2022-07-29T08:28:13.163Z,7
2022-07-29T08:33:13.227Z,7
2022-07-29T08:38:13.223Z,8
2022-07-29T08:43:13.193Z,6
2022-07-29T08:48:13.199Z,7
2022-07-29T08:53:13.218Z,7
2022-07-29T08:58:13.214Z,7
2022-07-29T09:03:13.228Z,7
2022-07-29T09:08:13.383Z,7
2022-07-29T09:13:13.250Z,7
2022-07-29T09:18:19.398Z,7
2022-07-29T09:23:13.284Z,7
2022-07-29T09:28:13.296Z,7
2022-07-29T09:33:13.291Z,7
2022-07-29T09:38:13.358Z,8
2022-07-29T09:43:13.312Z,8
2022-07-29T09:48:13.407Z,6
2022-07-29T09:53:13.343Z,9
2022-07-29T09:58:13.418Z,6
2022-07-29T10:03:13.449Z,7
2022-07-29T10:08:13.445Z,6
2022-07-29T10:13:15.304Z,7
2022-07-29T10:18:13.415Z,7
2022-07-29T10:23:13.437Z,6
2022-07-29T10:28:16.410Z,6
2022-07-29T10:33:13.472Z,7
2022-07-29T10:38:16.491Z,6
2022-07-29T10:43:13.445Z,6
2022-07-29T10:48:13.486Z,6
2022-07-29T10:53:14.293Z,6
2022-07-29T10:58:13.497Z,7
2022-07-29T11:03:13.494Z,6
2022-07-29T11:08:19.803Z,8
2022-07-29T11:13:13.484Z,7
2022-07-29T11:18:14.896Z,27
2022-07-29T11:23:13.566Z,7
2022-07-29T11:28:13.513Z,7
2022-07-29T11:33:14.029Z,8
2022-07-29T11:38:13.561Z,8
2022-07-29T11:43:13.607Z,7
2022-07-29T11:48:28.077Z,8
2022-07-29T11:53:13.603Z,7
2022-07-29T11:58:13.632Z,6
2022-07-29T12:03:13.698Z,6
2022-07-29T12:08:14.465Z,6
2022-07-29T12:13:13.660Z,7
2022-07-29T12:18:13.614Z,17
2022-07-29T12:23:13.637Z,6
2022-07-29T12:28:14.171Z,8
2022-07-29T12:33:13.692Z,7
2022-07-29T12:38:13.661Z,7
2022-07-29T12:43:13.670Z,8
2022-07-29T12:48:13.732Z,7
2022-07-29T12:53:13.766Z,6
2022-07-29T12:58:13.693Z,7
2022-07-29T13:03:13.741Z,8
2022-07-29T13:08:20.492Z,7
2022-07-29T13:13:13.770Z,7
2022-07-29T13:18:17.692Z,7
2022-07-29T13:23:13.782Z,7
2022-07-29T13:28:13.792Z,8
2022-07-29T13:33:13.896Z,8
2022-07-29T13:38:13.820Z,7
2022-07-29T13:43:14.079Z,5
2022-07-29T13:48:13.844Z,5
2022-07-29T13:53:17.679Z,5
2022-07-29T13:58:13.860Z,4
2022-07-29T14:03:13.906Z,4
2022-07-29T14:08:13.882Z,5
2022-07-29T14:13:19.698Z,5
2022-07-29T14:18:13.895Z,4
2022-07-29T14:23:14.344Z,4
2022-07-29T14:28:13.961Z,5
2022-07-29T14:33:13.918Z,5
2022-07-29T14:38:13.911Z,5
2022-07-29T14:43:13.915Z,6
2022-07-29T14:48:13.949Z,6
2022-07-29T14:53:13.922Z,6
2022-07-29T14:58:16.530Z,7
2022-07-29T15:03:14.003Z,5
2022-07-29T15:08:14.485Z,8
2022-07-29T15:13:14.045Z,6
2022-07-29T15:18:14.852Z,6
2022-07-29T15:23:14.011Z,7
2022-07-29T15:28:14.012Z,7
2022-07-29T15:33:14.029Z,7
2022-07-29T15:38:14.032Z,8
2022-07-29T15:43:14.045Z,7
2022-07-29T15:48:14.812Z,8
2022-07-29T15:53:14.157Z,8
2022-07-29T15:58:14.049Z,8
2022-07-29T16:03:14.079Z,7
2022-07-29T16:08:14.066Z,8
2022-07-29T16:13:16.986Z,8
2022-07-29T16:18:14.087Z,8
2022-07-29T16:23:14.625Z,8
2022-07-29T16:28:14.109Z,7
2022-07-29T16:33:14.134Z,8
2022-07-29T16:38:14.156Z,8
2022-07-29T16:43:14.267Z,7
2022-07-29T16:48:14.264Z,7
2022-07-29T16:53:14.257Z,8
2022-07-29T16:58:14.161Z,8
2022-07-29T17:03:14.178Z,7
2022-07-29T17:08:14.191Z,8
2022-07-29T17:13:14.232Z,7
2022-07-29T17:18:14.228Z,8
2022-07-29T17:23:14.226Z,9
2022-07-29T17:28:14.428Z,9
2022-07-29T17:33:14.769Z,8
2022-07-29T17:38:14.761Z,7
2022-07-29T17:43:14.311Z,7
2022-07-29T17:48:14.824Z,8
2022-07-29T17:53:15.734Z,7
2022-07-29T17:58:14.820Z,6
2022-07-29T18:03:14.382Z,4
2022-07-29T18:08:14.384Z,5
2022-07-29T18:13:14.445Z,5
2022-07-29T18:18:14.344Z,5
2022-07-29T18:23:14.364Z,5
2022-07-29T18:28:14.415Z,4
2022-07-29T18:33:22.619Z,4
2022-07-29T18:38:14.941Z,3
2022-07-29T18:43:14.395Z,4
2022-07-29T18:48:15.000Z,4
2022-07-29T18:53:14.407Z,5
2022-07-29T18:58:14.454Z,4
2022-07-29T19:03:14.511Z,4
2022-07-29T19:08:14.429Z,4
2022-07-29T19:13:14.935Z,4
2022-07-29T19:18:14.458Z,4
2022-07-29T19:23:14.496Z,4
2022-07-29T19:28:14.508Z,4
2022-07-29T19:33:14.507Z,4
2022-07-29T19:38:15.004Z,4
2022-07-29T19:43:49.407Z,5
2022-07-29T19:48:14.779Z,4
2022-07-29T19:53:15.050Z,5
2022-07-29T19:58:15.043Z,5
2022-07-29T20:03:14.584Z,3
2022-07-29T20:08:14.552Z,5
2022-07-29T20:13:14.564Z,4
2022-07-29T20:18:14.599Z,4
2022-07-29T20:23:14.589Z,4
2022-07-29T20:28:14.614Z,4
2022-07-29T20:33:15.127Z,5
2022-07-29T20:38:17.877Z,5
2022-07-29T20:43:14.609Z,5
2022-07-29T20:48:14.604Z,5
2022-07-29T20:53:14.611Z,4
2022-07-29T20:58:14.634Z,5
2022-07-29T21:03:14.659Z,5
2022-07-29T21:08:14.661Z,4
2022-07-29T21:13:15.161Z,5
2022-07-29T21:18:15.227Z,4
2022-07-29T21:23:14.800Z,4
2022-07-29T21:28:14.748Z,4
2022-07-29T21:33:14.823Z,4
2022-07-29T21:38:14.745Z,5
2022-07-29T21:43:14.769Z,5
2022-07-29T21:48:14.776Z,4
2022-07-29T21:53:15.741Z,5
2022-07-29T21:58:14.777Z,4
2022-07-29T22:03:15.386Z,4
2022-07-29T22:08:15.290Z,5
2022-07-29T22:13:15.416Z,4
2022-07-29T22:18:20.405Z,6
2022-07-29T22:23:15.344Z,8
2022-07-29T22:28:14.859Z,7
2022-07-29T22:33:17.322Z,6
2022-07-29T22:38:14.838Z,6
2022-07-29T22:43:14.867Z,8
2022-07-29T22:48:14.876Z,7
2022-07-29T22:53:14.882Z,8
2022-07-29T22:58:14.862Z,8
2022-07-29T23:03:15.004Z,8
2022-07-29T23:08:14.876Z,8
2022-07-29T23:13:14.890Z,8
2022-07-29T23:18:14.923Z,8
2022-07-29T23:23:14.958Z,7
2022-07-29T23:28:14.926Z,7
2022-07-29T23:33:14.933Z,7
2022-07-29T23:38:15.023Z,7
2022-07-29T23:43:14.974Z,6
2022-07-29T23:48:15.001Z,7
2022-07-29T23:53:15.063Z,6
2022-07-29T23:58:15.026Z,7
